Time;durP1;ratioP1;P1;durP2;ratioP2;P2;SDS_P1;SDS_P2;PMS_P1;PMS_P2;Temp;Humidity;BMP_temperature;BMP_pressure;BME280_temperature;BME280_humidity;BME280_pressure;Samples;Min_cycle;Max_cycle;Signal;HPM_P1;HPM_P2
2021/12/01 00:04:52;;;;;;;;;;;;;;;8.81;94.2627;99906.04;;;;-84
2021/12/01 00:09:25;;;;;;;11.3;1.9;;;;;;;;;;;;;-84
2021/12/01 00:09:51;;;;;;;;;;;;;;;8.82;94.1748;99890.47;;;;-84
2021/12/01 00:14:49;;;;;;;;;;;;;;;8.81;94.15332;99878.72;;;;-83
2021/12/01 00:19:49;;;;;;;;;;;;;;;8.82;94.11133;99857.35;;;;-83
2021/12/01 00:24:49;;;;;;;;;;;;;;;8.83;94.06738;99851.03;;;;-84
2021/12/01 00:29:51;;;;;;;;;;;;;;;8.85;94.0293;99819.48;;;;-83
2021/12/01 00:34:50;;;;;;;;;;;;;;;8.87;93.95605;99809.06;;;;-83
2021/12/01 00:39:21;;;;;;;10;1.2;;;;;;;;;;;;;-84
2021/12/01 00:39:50;;;;;;;;;;;;;;;8.87;93.89063;99805.14;;;;-84
2021/12/01 00:44:56;;;;;;;;;;;;;;;8.9;94.02734;99788.97;;;;-82
2021/12/01 00:49:49;;;;;;;;;;;;;;;8.91;94.08691;99769.59;;;;-83
2021/12/01 00:54:49;;;;;;;;;;;;;;;8.94;94.07031;99751.56;;;;-83
2021/12/01 00:59:50;;;;;;;;;;;;;;;8.96;94.05273;99735.45;;;;-84
2021/12/01 01:04:51;;;;;;;;;;;;;;;8.97;94.18652;99729.31;;;;-84
2021/12/01 01:09:22;;;;;;;12.3;1.4;;;;;;;;;;;;;-82
2021/12/01 01:09:49;;;;;;;;;;;;;;;9;94.26855;99732.52;;;;-82
2021/12/01 01:19:50;;;;;;;;;;;;;;;9.03;94.66113;99703.45;;;;-84
2021/12/01 01:24:51;;;;;;;;;;;;;;;9.03;94.57324;99693.01;;;;-82
2021/12/01 01:29:50;;;;;;;;;;;;;;;9.03;94.57324;99675.06;;;;-83
2021/12/01 01:34:51;;;;;;;;;;;;;;;9.04;94.60645;99654.97;;;;-82
2021/12/01 01:39:20;;;;;;;17;1.9;;;;;;;;;;;;;-84
2021/12/01 01:39:50;;;;;;;;;;;;;;;9.04;94.59766;99647.27;;;;-82
2021/12/01 01:44:49;;;;;;;;;;;;;;;9.04;94.63867;99631.7;;;;-82
2021/12/01 01:49:54;;;;;;;;;;;;;;;9.04;94.68457;99620.1;;;;-83
2021/12/01 01:54:51;;;;;;;;;;;;;;;9.05;94.71973;99603.14;;;;-82
2021/12/01 01:59:50;;;;;;;;;;;;;;;9.06;94.73242;99576.66;;;;-81
2021/12/01 02:04:49;;;;;;;;;;;;;;;9.04;94.68457;99570.72;;;;-83
2021/12/01 02:09:23;;;;;;;18.6;2.1;;;;;;;;;;;;;-83
2021/12/01 02:09:51;;;;;;;;;;;;;;;9.02;94.64844;99540.05;;;;-83
2021/12/01 02:14:49;;;;;;;;;;;;;;;9.03;94.65039;99532.18;;;;-82
2021/12/01 02:19:49;;;;;;;;;;;;;;;9.02;94.58203;99507.95;;;;-83
2021/12/01 02:24:49;;;;;;;;;;;;;;;9.01;94.49219;99500.11;;;;-81
2021/12/01 02:29:51;;;;;;;;;;;;;;;9;94.37012;99498.93;;;;-80
2021/12/01 02:34:49;;;;;;;;;;;;;;;9;94.26855;99487.52;;;;-81
2021/12/01 02:39:20;;;;;;;24.5;2.6;;;;;;;;;;;;;-82
2021/12/01 02:39:55;;;;;;;;;;;;;;;9.01;94.16309;99478.48;;;;-81
2021/12/01 02:44:49;;;;;;;;;;;;;;;9.02;94.00977;99463.52;;;;-81
2021/12/01 02:49:49;;;;;;;;;;;;;;;9.02;93.89941;99441.27;;;;-82
2021/12/01 02:54:49;;;;;;;;;;;;;;;9.04;93.80469;99418.26;;;;-81
2021/12/01 02:59:49;;;;;;;;;;;;;;;9.04;93.71875;99400.34;;;;-80
2021/12/01 03:04:51;;;;;;;;;;;;;;;9.04;93.67285;99382.14;;;;-84
2021/12/01 03:09:20;;;;;;;13.3;1.7;;;;;;;;;;;;;-83
2021/12/01 03:09:49;;;;;;;;;;;;;;;9.04;93.76074;99379.41;;;;-83
2021/12/01 03:14:49;;;;;;;;;;;;;;;9.04;93.87012;99362.95;;;;-81
2021/12/01 03:19:49;;;;;;;;;;;;;;;9.04;93.98047;99344.02;;;;-81
2021/12/01 03:24:49;;;;;;;;;;;;;;;9.04;93.99121;99334.41;;;;-82
2021/12/01 03:29:49;;;;;;;;;;;;;;;9.04;94.00391;99315.34;;;;-82
2021/12/01 03:34:49;;;;;;;;;;;;;;;9.02;94.06641;99290.25;;;;-81
2021/12/01 03:39:19;;;;;;;6.6;1.4;;;;;;;;;;;;;-82
2021/12/01 03:39:49;;;;;;;;;;;;;;;9.02;94.1416;99275.84;;;;-82
2021/12/01 03:44:49;;;;;;;;;;;;;;;9;94.20508;99251.38;;;;-81
2021/12/01 03:49:49;;;;;;;;;;;;;;;8.99;94.34375;99250.65;;;;-82
2021/12/01 03:54:49;;;;;;;;;;;;;;;8.98;94.44238;99233.17;;;;-81
2021/12/01 03:59:50;;;;;;;;;;;;;;;8.97;94.42773;99223.67;;;;-81
2021/12/01 04:04:57;;;;;;;;;;;;;;;8.96;94.48047;99195.03;;;;-82
2021/12/01 04:09:20;;;;;;;3.5;1.5;;;;;;;;;;;;;-82
2021/12/01 04:09:50;;;;;;;;;;;;;;;8.94;94.58398;99193.3;;;;-82
2021/12/01 04:14:49;;;;;;;;;;;;;;;8.92;94.59375;99183.81;;;;-82
2021/12/01 04:19:50;;;;;;;;;;;;;;;8.9;94.57617;99189.84;;;;-83
2021/12/01 04:24:49;;;;;;;;;;;;;;;8.87;94.50488;99165.2;;;;-81
2021/12/01 04:29:49;;;;;;;;;;;;;;;8.83;94.47559;99157.31;;;;-83
2021/12/01 04:34:50;;;;;;;;;;;;;;;8.78;94.4209;99138.81;;;;-83
2021/12/01 04:39:20;;;;;;;2.7;1.5;;;;;;;;;;;;;-82
2021/12/01 04:39:49;;;;;;;;;;;;;;;8.73;94.3418;99139.56;;;;-83
2021/12/01 04:44:49;;;;;;;;;;;;;;;8.7;94.3252;99121.59;;;;-82
2021/12/01 04:49:50;;;;;;;;;;;;;;;8.66;94.27344;99104.28;;;;-82
2021/12/01 04:54:49;;;;;;;;;;;;;;;8.64;94.26953;99100.11;;;;-83
2021/12/01 04:59:49;;;;;;;;;;;;;;;8.62;94.28711;99081.36;;;;-83
2021/12/01 05:04:49;;;;;;;;;;;;;;;8.61;94.27441;99067.56;;;;-82
2021/12/01 05:09:19;;;;;;;3.8;1.7;;;;;;;;;;;;;-83
2021/12/01 05:09:49;;;;;;;;;;;;;;;8.59;94.23535;99060.72;;;;-82
2021/12/01 05:14:49;;;;;;;;;;;;;;;8.59;94.24609;99040.92;;;;-83
2021/12/01 05:19:52;;;;;;;;;;;;;;;8.58;94.21191;99034.89;;;;-84
2021/12/01 05:24:51;;;;;;;;;;;;;;;8.58;94.18945;99033.41;;;;-84
2021/12/01 05:29:55;;;;;;;;;;;;;;;8.56;94.18555;99032;;;;-83
2021/12/01 05:34:50;;;;;;;;;;;;;;;8.54;94.16016;99020.98;;;;-84
2021/12/01 05:39:19;;;;;;;4.4;1.5;;;;;;;;;;;;;-84
2021/12/01 05:39:49;;;;;;;;;;;;;;;8.54;94.20313;99022.53;;;;-84
2021/12/01 05:44:49;;;;;;;;;;;;;;;8.54;94.22559;99016.34;;;;-84
2021/12/01 05:49:49;;;;;;;;;;;;;;;8.54;94.18164;99012.92;;;;-82
2021/12/01 05:54:51;;;;;;;;;;;;;;;8.53;94.25488;98978.68;;;;-83
2021/12/01 05:59:49;;;;;;;;;;;;;;;8.52;94.27441;98979.55;;;;-83
2021/12/01 06:04:49;;;;;;;;;;;;;;;8.52;94.24121;98957.91;;;;-83
2021/12/01 06:09:19;;;;;;;10.8;1.7;;;;;;;;;;;;;-83
2021/12/01 06:09:49;;;;;;;;;;;;;;;8.52;94.24121;98958.24;;;;-83
2021/12/01 06:14:51;;;;;;;;;;;;;;;8.53;94.27832;98953.61;;;;-83
2021/12/01 06:19:49;;;;;;;;;;;;;;;8.53;94.30078;98936.47;;;;-82
2021/12/01 06:24:49;;;;;;;;;;;;;;;8.53;94.35352;98919.15;;;;-83
2021/12/01 06:29:49;;;;;;;;;;;;;;;8.54;94.38965;98933.13;;;;-83
2021/12/01 06:34:51;;;;;;;;;;;;;;;8.54;94.43359;98934.28;;;;-82
2021/12/01 06:39:20;;;;;;;11;1.9;;;;;;;;;;;;;-84
2021/12/01 06:39:51;;;;;;;;;;;;;;;8.55;94.43555;98909.78;;;;-82
2021/12/01 06:44:50;;;;;;;;;;;;;;;8.55;94.41602;98919.58;;;;-82
2021/12/01 06:49:49;;;;;;;;;;;;;;;8.56;94.37207;98894.73;;;;-83
2021/12/01 06:54:49;;;;;;;;;;;;;;;8.56;94.33887;98884.86;;;;-84
2021/12/01 06:59:50;;;;;;;;;;;;;;;8.57;94.38281;98876.17;;;;-83
2021/12/01 07:04:49;;;;;;;;;;;;;;;8.57;94.41602;98859.72;;;;-84
2021/12/01 07:09:24;;;;;;;10.7;2;;;;;;;;;;;;;-84
2021/12/01 07:09:50;;;;;;;;;;;;;;;8.57;94.41797;98856.86;;;;-83
2021/12/01 07:14:49;;;;;;;;;;;;;;;8.57;94.33203;98861.65;;;;-84
2021/12/01 07:19:51;;;;;;;;;;;;;;;8.58;94.32129;98840.72;;;;-84
2021/12/01 07:24:52;;;;;;;;;;;;;;;8.58;94.32129;98860.22;;;;-82
2021/12/01 07:29:53;;;;;;;;;;;;;;;8.58;94.24414;98877.73;;;;-84
2021/12/01 07:34:51;;;;;;;;;;;;;;;8.53;93.88379;98888.13;;;;-83
2021/12/01 07:39:20;;;;;;;14.3;2.3;;;;;;;;;;;;;-83
2021/12/01 07:39:50;;;;;;;;;;;;;;;8.46;93.2207;98879;;;;-84
2021/12/01 07:44:50;;;;;;;;;;;;;;;8.37;92.5;98880.37;;;;-82
2021/12/01 07:49:49;;;;;;;;;;;;;;;8.31;92.25781;98891.3;;;;-84
2021/12/01 07:54:49;;;;;;;;;;;;;;;8.28;92.11816;98885.03;;;;-83
2021/12/01 07:59:49;;;;;;;;;;;;;;;8.23;91.80371;98892.51;;;;-84
2021/12/01 08:04:49;;;;;;;;;;;;;;;8.19;91.72852;98896.99;;;;-82
2021/12/01 08:09:18;;;;;;;6.4;1.2;;;;;;;;;;;;;-82
2021/12/01 08:09:49;;;;;;;;;;;;;;;8.16;91.7334;98903.86;;;;-82
2021/12/01 08:14:49;;;;;;;;;;;;;;;8.13;91.74805;98901.35;;;;-83
2021/12/01 08:19:49;;;;;;;;;;;;;;;8.11;91.78809;98915.69;;;;-83
2021/12/01 08:24:49;;;;;;;;;;;;;;;8.1;91.76367;98917.26;;;;-82
2021/12/01 08:29:49;;;;;;;;;;;;;;;8.07;91.75586;98913.41;;;;-83
2021/12/01 08:34:51;;;;;;;;;;;;;;;8.06;91.75488;98912.41;;;;-82
2021/12/01 08:39:20;;;;;;;11.7;1.1;;;;;;;;;;;;;-82
2021/12/01 08:39:49;;;;;;;;;;;;;;;8.06;91.79785;98922;;;;-82
2021/12/01 08:44:49;;;;;;;;;;;;;;;8.05;91.75293;98932.63;;;;-83
2021/12/01 08:49:52;;;;;;;;;;;;;;;8.03;91.80371;98939.15;;;;-82
2021/12/01 08:54:49;;;;;;;;;;;;;;;8.02;91.85449;98938.81;;;;-82
2021/12/01 08:59:50;;;;;;;;;;;;;;;8.01;91.85449;98939.77;;;;-83
2021/12/01 09:04:50;;;;;;;;;;;;;;;8;91.85059;98961.45;;;;-83
2021/12/01 09:09:21;;;;;;;6.1;1;;;;;;;;;;;;;-83
2021/12/01 09:09:58;;;;;;;;;;;;;;;7.99;91.77148;98960.77;;;;-83
2021/12/01 09:14:51;;;;;;;;;;;;;;;8;91.64258;98950.11;;;;-83
2021/12/01 09:19:49;;;;;;;;;;;;;;;8;91.60059;98973.31;;;;-83
2021/12/01 09:24:49;;;;;;;;;;;;;;;8;91.61133;98978.63;;;;-82
2021/12/01 09:29:51;;;;;;;;;;;;;;;8.01;91.53613;98994.91;;;;-83
2021/12/01 09:34:50;;;;;;;;;;;;;;;8.03;91.42871;98973.39;;;;-83
2021/12/01 09:39:18;;;;;;;8.5;1.3;;;;;;;;;;;;;-84
2021/12/01 09:39:49;;;;;;;;;;;;;;;8.04;91.24609;98979.75;;;;-82
2021/12/01 09:44:51;;;;;;;;;;;;;;;8.03;91.10156;98977.03;;;;-82
2021/12/01 09:49:50;;;;;;;;;;;;;;;8.05;91.00684;98990.95;;;;-82
2021/12/01 09:54:50;;;;;;;;;;;;;;;8.05;90.98535;98975.84;;;;-82
2021/12/01 09:59:49;;;;;;;;;;;;;;;8.06;91;98983.16;;;;-80
2021/12/01 10:04:49;;;;;;;;;;;;;;;8.05;91.0293;98970.5;;;;-81
2021/12/01 10:09:17;;;;;;;11.1;1.3;;;;;;;;;;;;;-82
2021/12/01 10:09:52;;;;;;;;;;;;;;;8.07;91;98972.41;;;;-82
2021/12/01 10:14:52;;;;;;;;;;;;;;;8.09;90.88281;98981.3;;;;-83
2021/12/01 10:19:49;;;;;;;;;;;;;;;8.11;90.82129;98966.45;;;;-81
2021/12/01 10:24:50;;;;;;;;;;;;;;;8.11;90.74414;98970.89;;;;-83
2021/12/01 10:29:58;;;;;;;;;;;;;;;8.08;90.66211;98975.77;;;;-83
2021/12/01 10:34:53;;;;;;;;;;;;;;;8.07;90.59375;98976.45;;;;-81
2021/12/01 10:39:18;;;;;;;14.8;2;;;;;;;;;;;;;-83
2021/12/01 10:39:50;;;;;;;;;;;;;;;8.04;90.56641;98973.12;;;;-82
2021/12/01 10:45:04;;;;;;;;;;;;;;;8.03;90.58496;98986.38;;;;-82
2021/12/01 10:49:49;;;;;;;;;;;;;;;8.02;90.47266;98986.39;;;;-82
2021/12/01 10:55:01;;;;;;;;;;;;;;;7.99;90.33594;98979.7;;;;-82
2021/12/01 10:59:53;;;;;;;;;;;;;;;7.99;90.29199;98987.24;;;;-80
2021/12/01 11:04:53;;;;;;;;;;;;;;;7.95;90.25098;98977.88;;;;-81
2021/12/01 11:09:21;;;;;;;12.7;1.8;;;;;;;;;;;;;-81
2021/12/01 11:09:50;;;;;;;;;;;;;;;7.92;90.18945;98986.3;;;;-82
2021/12/01 11:14:49;;;;;;;;;;;;;;;7.91;90.19824;98977.25;;;;-81
2021/12/01 11:19:49;;;;;;;;;;;;;;;7.9;90.13086;98971.22;;;;-82
2021/12/01 11:24:49;;;;;;;;;;;;;;;7.9;90.19824;98973.13;;;;-82
2021/12/01 11:29:49;;;;;;;;;;;;;;;7.9;90.16309;98970.89;;;;-81
2021/12/01 11:34:49;;;;;;;;;;;;;;;7.91;90.1875;98960.99;;;;-83
2021/12/01 11:39:30;;;;;;;8.9;1.6;;;;;;;;;;;;;-83
2021/12/01 11:40:01;;;;;;;;;;;;;;;7.91;90.10156;98953.55;;;;-82
2021/12/01 11:44:49;;;;;;;;;;;;;;;7.91;90.09082;98963.97;;;;-82
2021/12/01 11:49:53;;;;;;;;;;;;;;;7.94;90.08496;98967.23;;;;-82
2021/12/01 11:54:50;;;;;;;;;;;;;;;7.94;90.18359;98966.06;;;;-83
2021/12/01 12:00:03;;;;;;;;;;;;;;;7.96;90.22266;98979.63;;;;-83
2021/12/01 12:04:54;;;;;;;;;;;;;;;7.99;90.21484;98968.16;;;;-83
2021/12/01 12:09:21;;;;;;;12.9;1.6;;;;;;;;;;;;;-82
2021/12/01 12:09:59;;;;;;;;;;;;;;;8.01;90.37207;98970.44;;;;-82
2021/12/01 12:15:04;;;;;;;;;;;;;;;8.04;90.37988;98984.61;;;;-82
2021/12/01 12:20:12;;;;;;;;;;;;;;;8.06;90.38379;98982.08;;;;-83
2021/12/01 12:24:52;;;;;;;;;;;;;;;8.06;90.48438;98985.63;;;;-82
2021/12/01 12:29:55;;;;;;;;;;;;;;;8.06;90.53906;98982.17;;;;-82
2021/12/01 12:35:00;;;;;;;;;;;;;;;8.01;90.62695;98998.44;;;;-83
2021/12/01 12:39:20;;;;;;;14.9;1.5;;;;;;;;;;;;;-83
2021/12/01 12:40:04;;;;;;;;;;;;;;;7.98;90.54199;98993.08;;;;-83
2021/12/01 12:44:50;;;;;;;;;;;;;;;7.94;90.58984;98998.59;;;;-83
2021/12/01 12:49:53;;;;;;;;;;;;;;;7.93;90.56543;99014.94;;;;-81
2021/12/01 12:54:52;;;;;;;;;;;;;;;7.93;90.51074;99010.34;;;;-83
2021/12/01 12:59:49;;;;;;;;;;;;;;;7.88;90.52148;99013.94;;;;-82
2021/12/01 13:05:23;;;;;;;;;;;;;;;7.85;90.52637;99012.14;;;;-82
2021/12/01 13:09:23;;;;;;;10.6;1.5;;;;;;;;;;;;;-83
2021/12/01 13:10:01;;;;;;;;;;;;;;;7.87;90.29102;99022.72;;;;-82
2021/12/01 13:14:49;;;;;;;;;;;;;;;7.85;90.09961;99021.67;;;;-82
2021/12/01 13:20:00;;;;;;;;;;;;;;;7.82;89.92969;99029.77;;;;-84
2021/12/01 13:24:51;;;;;;;;;;;;;;;7.78;89.43945;99033.17;;;;-82
2021/12/01 13:29:49;;;;;;;;;;;;;;;7.79;89.00293;99037.11;;;;-82
2021/12/01 13:34:49;;;;;;;;;;;;;;;7.76;88.89648;99059.7;;;;-82
2021/12/01 13:39:18;;;;;;;7.5;1;;;;;;;;;;;;;-81
2021/12/01 13:39:48;;;;;;;;;;;;;;;7.73;88.77051;99057.45;;;;-81
2021/12/01 13:44:50;;;;;;;;;;;;;;;7.71;88.94238;99071.08;;;;-82
2021/12/01 13:49:50;;;;;;;;;;;;;;;7.68;88.91406;99068.29;;;;-82
2021/12/01 13:54:49;;;;;;;;;;;;;;;7.58;88.07227;99087.68;;;;-81
2021/12/01 13:59:53;;;;;;;;;;;;;;;7.55;88.29492;99100.17;;;;-82
2021/12/01 14:04:52;;;;;;;;;;;;;;;7.48;88.21387;99102.23;;;;-83
2021/12/01 14:09:36;;;;;;;8;1.1;;;;;;;;;;;;;-82
2021/12/01 14:09:57;;;;;;;;;;;;;;;7.44;88.20703;99108.72;;;;-81
2021/12/01 14:14:51;;;;;;;;;;;;;;;7.38;87.82324;99117.31;;;;-82
2021/12/01 14:19:50;;;;;;;;;;;;;;;7.32;87.75586;99114.92;;;;-81
2021/12/01 14:24:59;;;;;;;;;;;;;;;7.32;87.90918;99116.89;;;;-82
2021/12/01 14:29:51;;;;;;;;;;;;;;;7.3;87.94727;99132.84;;;;-82
2021/12/01 14:34:49;;;;;;;;;;;;;;;7.23;87.85742;99138.05;;;;-83
2021/12/01 14:39:16;;;;;;;7.8;1;;;;;;;;;;;;;-81
2021/12/01 14:39:49;;;;;;;;;;;;;;;7.15;87.75488;99147.81;;;;-81
2021/12/01 14:44:49;;;;;;;;;;;;;;;7.09;87.72949;99160.36;;;;-82
2021/12/01 14:49:51;;;;;;;;;;;;;;;7.04;87.97266;99167.99;;;;-82
2021/12/01 14:54:53;;;;;;;;;;;;;;;6.97;87.85938;99173.25;;;;-82
2021/12/01 14:59:54;;;;;;;;;;;;;;;6.9;87.9541;99186.52;;;;-81
2021/12/01 15:04:59;;;;;;;;;;;;;;;6.85;88.03223;99192;;;;-82
2021/12/01 15:09:15;;;;;;;6.1;1;;;;;;;;;;;;;-82
2021/12/01 15:09:48;;;;;;;;;;;;;;;6.77;87.84082;99204.94;;;;-81
2021/12/01 15:14:48;;;;;;;;;;;;;;;6.71;87.97168;99218.24;;;;-81
2021/12/01 15:20:01;;;;;;;;;;;;;;;6.65;88.06836;99226.23;;;;-82
2021/12/01 15:24:51;;;;;;;;;;;;;;;6.58;87.94531;99242.61;;;;-82
2021/12/01 15:29:51;;;;;;;;;;;;;;;6.5;87.80859;99255.69;;;;-82
2021/12/01 15:34:48;;;;;;;;;;;;;;;6.42;87.75977;99257.25;;;;-82
2021/12/01 15:39:16;;;;;;;7.8;1;;;;;;;;;;;;;-82
2021/12/01 15:39:48;;;;;;;;;;;;;;;6.36;87.7793;99284.96;;;;-82
2021/12/01 15:44:52;;;;;;;;;;;;;;;6.29;87.63379;99290.77;;;;-82
2021/12/01 15:49:49;;;;;;;;;;;;;;;6.21;87.62109;99297.59;;;;-81
2021/12/01 15:54:48;;;;;;;;;;;;;;;6.16;87.7168;99302.8;;;;-82
2021/12/01 15:59:49;;;;;;;;;;;;;;;6.1;87.75;99317.94;;;;-82
2021/12/01 16:04:48;;;;;;;;;;;;;;;6.04;87.76074;99328.09;;;;-82
2021/12/01 16:09:17;;;;;;;8.8;1.3;;;;;;;;;;;;;-81
2021/12/01 16:09:48;;;;;;;;;;;;;;;5.98;87.83496;99342.92;;;;-82
2021/12/01 16:14:49;;;;;;;;;;;;;;;5.9;87.77441;99342.45;;;;-81
2021/12/01 16:19:49;;;;;;;;;;;;;;;5.85;87.9834;99352.98;;;;-81
2021/12/01 16:24:51;;;;;;;;;;;;;;;5.8;87.92871;99375.77;;;;-81
2021/12/01 16:29:54;;;;;;;;;;;;;;;5.73;87.56543;99379.81;;;;-81
2021/12/01 16:34:57;;;;;;;;;;;;;;;5.68;87.61035;99370.75;;;;-84
2021/12/01 16:39:16;;;;;;;3.7;0.7;;;;;;;;;;;;;-83
2021/12/01 16:39:49;;;;;;;;;;;;;;;5.63;87.63184;99384.73;;;;-84
2021/12/01 16:44:52;;;;;;;;;;;;;;;5.58;87.59961;99393.03;;;;-83
2021/12/01 16:49:49;;;;;;;;;;;;;;;5.52;87.67578;99400.7;;;;-82
2021/12/01 16:54:49;;;;;;;;;;;;;;;5.44;87.62793;99429.14;;;;-83
2021/12/01 16:59:50;;;;;;;;;;;;;;;5.36;87.3916;99433.3;;;;-82
2021/12/01 17:04:50;;;;;;;;;;;;;;;5.31;87.33691;99450.97;;;;-81
2021/12/01 17:09:14;;;;;;;3.2;0.6;;;;;;;;;;;;;-80
2021/12/01 17:09:51;;;;;;;;;;;;;;;5.28;87.46191;99456.11;;;;-86
2021/12/01 17:14:49;;;;;;;;;;;;;;;5.23;87.63867;99451.69;;;;-82
2021/12/01 17:19:50;;;;;;;;;;;;;;;5.21;87.70898;99454.79;;;;-82
2021/12/01 17:24:51;;;;;;;;;;;;;;;5.16;87.69043;99463.42;;;;-82
2021/12/01 17:29:51;;;;;;;;;;;;;;;5.12;87.60547;99474.05;;;;-82
2021/12/01 17:34:50;;;;;;;;;;;;;;;5.05;87.60156;99482.41;;;;-83
2021/12/01 17:39:15;;;;;;;7.7;0.9;;;;;;;;;;;;;-83
2021/12/01 17:39:50;;;;;;;;;;;;;;;5;87.52637;99497.11;;;;-83
2021/12/01 17:44:50;;;;;;;;;;;;;;;4.97;87.83691;99507.61;;;;-84
2021/12/01 17:49:50;;;;;;;;;;;;;;;4.94;87.78613;99511.69;;;;-84
2021/12/01 17:54:55;;;;;;;;;;;;;;;4.92;87.88086;99520.7;;;;-84
2021/12/01 17:59:51;;;;;;;;;;;;;;;4.91;87.91113;99530.05;;;;-83
2021/12/01 18:04:49;;;;;;;;;;;;;;;4.89;88.0166;99541.49;;;;-82
2021/12/01 18:09:49;;;;;;;;;;;;;;;4.88;88.06738;99551.04;;;;-82
2021/12/01 18:14:49;;;;;;;;;;;;;;;4.87;88.26367;99553.98;;;;-83
2021/12/01 18:19:49;;;;;;;;;;;;;;;4.84;88.3457;99560.64;;;;-83
2021/12/01 18:24:49;;;;;;;;;;;;;;;4.79;88.14844;99566.54;;;;-82
2021/12/01 18:29:49;;;;;;;;;;;;;;;4.75;88.17383;99582.54;;;;-82
2021/12/01 18:34:49;;;;;;;;;;;;;;;4.71;88.18652;99586.15;;;;-82
2021/12/01 18:39:14;;;;;;;5.8;0.8;;;;;;;;;;;;;-84
2021/12/01 18:39:49;;;;;;;;;;;;;;;4.67;88.14648;99612.16;;;;-81
2021/12/01 18:44:51;;;;;;;;;;;;;;;4.64;88.04102;99624.03;;;;-84
2021/12/01 18:49:49;;;;;;;;;;;;;;;4.63;88.22461;99628.41;;;;-82
2021/12/01 18:54:51;;;;;;;;;;;;;;;4.59;88.28418;99633.52;;;;-83
2021/12/01 18:59:49;;;;;;;;;;;;;;;4.56;88.36133;99642.88;;;;-81
2021/12/01 19:04:48;;;;;;;;;;;;;;;4.51;88.36328;99649.51;;;;-82
2021/12/01 19:09:12;;;;;;;4;0.8;;;;;;;;;;;;;-80
2021/12/01 19:09:48;;;;;;;;;;;;;;;4.47;88.35449;99658.17;;;;-80
2021/12/01 19:14:49;;;;;;;;;;;;;;;4.41;88.19922;99669.47;;;;-80
2021/12/01 19:19:50;;;;;;;;;;;;;;;4.35;88.11426;99678.38;;;;-80
2021/12/01 19:24:48;;;;;;;;;;;;;;;4.31;88.11621;99677.5;;;;-81
2021/12/01 19:29:48;;;;;;;;;;;;;;;4.27;88.06445;99683.63;;;;-80
2021/12/01 19:34:52;;;;;;;;;;;;;;;4.24;88.14453;99689.45;;;;-80
2021/12/01 19:39:14;;;;;;;4;0.7;;;;;;;;;;;;;-81
2021/12/01 19:39:49;;;;;;;;;;;;;;;4.19;88.01563;99695.88;;;;-81
2021/12/01 19:44:56;;;;;;;;;;;;;;;4.16;87.91016;99700.81;;;;-83
2021/12/01 19:49:50;;;;;;;;;;;;;;;4.12;87.91504;99706.37;;;;-81
2021/12/01 19:54:49;;;;;;;;;;;;;;;4.11;88.05078;99711.52;;;;-82
2021/12/01 19:59:50;;;;;;;;;;;;;;;4.06;87.84668;99717.94;;;;-83
2021/12/01 20:04:50;;;;;;;;;;;;;;;4.02;87.68848;99725.61;;;;-84
2021/12/01 20:09:10;;;;;;;2.7;0.8;;;;;;;;;;;;;-82
2021/12/01 20:09:55;;;;;;;;;;;;;;;3.98;87.75488;99733.8;;;;-83
2021/12/01 20:14:49;;;;;;;;;;;;;;;3.98;87.88574;99742.35;;;;-83
2021/12/01 20:19:54;;;;;;;;;;;;;;;3.94;87.75684;99744.84;;;;-82
2021/12/01 20:24:51;;;;;;;;;;;;;;;3.91;87.92578;99754.36;;;;-84
2021/12/01 20:29:55;;;;;;;;;;;;;;;3.88;87.7998;99755.59;;;;-81
2021/12/01 20:34:49;;;;;;;;;;;;;;;3.84;87.78223;99766.16;;;;-81
2021/12/01 20:39:14;;;;;;;6.6;0.8;;;;;;;;;;;;;-83
2021/12/01 20:39:53;;;;;;;;;;;;;;;3.84;87.82324;99777.13;;;;-82
2021/12/01 20:45:01;;;;;;;;;;;;;;;3.83;87.93066;99783.26;;;;-82
2021/12/01 20:55:04;;;;;;;;;;;;;;;3.85;88.06445;99807.73;;;;-82
2021/12/01 21:00:00;;;;;;;;;;;;;;;3.84;88.11914;99802.41;;;;-82
2021/12/01 21:04:48;;;;;;;;;;;;;;;3.84;88.23633;99809.62;;;;-83
2021/12/01 21:09:27;;;;;;;7.2;1;;;;;;;;;;;;;-83
2021/12/01 21:09:52;;;;;;;;;;;;;;;3.83;88.26758;99814.02;;;;-83
2021/12/01 21:14:50;;;;;;;;;;;;;;;3.82;88.2998;99818.06;;;;-84
2021/12/01 21:19:49;;;;;;;;;;;;;;;3.79;88.27246;99819;;;;-83
2021/12/01 21:24:49;;;;;;;;;;;;;;;3.76;88.2627;99824.38;;;;-84
2021/12/01 21:29:51;;;;;;;;;;;;;;;3.74;88.30469;99830;;;;-83
2021/12/01 21:34:57;;;;;;;;;;;;;;;3.72;88.25586;99834.9;;;;-82
2021/12/01 21:39:08;;;;;;;2.3;0.7;;;;;;;;;;;;;-82
2021/12/01 21:39:49;;;;;;;;;;;;;;;3.7;88.27539;99835.4;;;;-82
2021/12/01 21:44:51;;;;;;;;;;;;;;;3.68;88.30273;99838.11;;;;-80
2021/12/01 21:49:49;;;;;;;;;;;;;;;3.67;88.39844;99842.67;;;;-81
2021/12/01 21:54:49;;;;;;;;;;;;;;;3.62;88.32422;99844.92;;;;-81
2021/12/01 21:59:51;;;;;;;;;;;;;;;3.6;88.29883;99847.84;;;;-84
2021/12/01 22:04:51;;;;;;;;;;;;;;;3.59;88.22754;99848.4;;;;-81
2021/12/01 22:09:06;;;;;;;4.9;0.7;;;;;;;;;;;;;-82
2021/12/01 22:09:49;;;;;;;;;;;;;;;3.54;88.31641;99849.47;;;;-80
2021/12/01 22:14:49;;;;;;;;;;;;;;;3.5;88.29785;99855.74;;;;-81
2021/12/01 22:19:50;;;;;;;;;;;;;;;3.47;88.44434;99858.28;;;;-82
2021/12/01 22:24:52;;;;;;;;;;;;;;;3.45;88.38672;99871.34;;;;-82
2021/12/01 22:29:51;;;;;;;;;;;;;;;3.43;88.49121;99872.38;;;;-81
2021/12/01 22:34:51;;;;;;;;;;;;;;;3.42;88.56543;99862.88;;;;-83
2021/12/01 22:42:08;;;;;;;4;0.8;;;;;;;;;;;;;-83
2021/12/01 22:42:18;;;;;;;;;;;;;;;3.44;88.80762;99865.26;;;;-83
2021/12/01 22:45:05;;;;;;;;;;;;;;;3.47;88.81348;99859.16;;;;-80
2021/12/01 22:50:05;;;;;;;;;;;;;;;3.48;88.80469;99868.16;;;;-81
2021/12/01 22:55:04;;;;;;;;;;;;;;;3.51;88.81055;99871.63;;;;-81
2021/12/01 23:00:11;;;;;;;;;;;;;;;3.54;88.89355;99873.17;;;;-81
2021/12/01 23:05:05;;;;;;;;;;;;;;;3.57;88.96387;99893.94;;;;-80
2021/12/01 23:09:03;;;;;;;4.1;0.5;;;;;;;;;;;;;-81
2021/12/01 23:10:04;;;;;;;;;;;;;;;3.59;89.14355;99889.66;;;;-81
2021/12/01 23:15:04;;;;;;;;;;;;;;;3.63;89.25781;99910.83;;;;-81
2021/12/01 23:20:04;;;;;;;;;;;;;;;3.65;89.31836;99908.58;;;;-81
2021/12/01 23:30:05;;;;;;;;;;;;;;;3.68;89.55176;99915.16;;;;-81
2021/12/01 23:35:04;;;;;;;;;;;;;;;3.68;89.50781;99914.27;;;;-81
2021/12/01 23:39:03;;;;;;;1.7;0.4;;;;;;;;;;;;;-82
2021/12/01 23:40:05;;;;;;;;;;;;;;;3.69;89.60547;99915.23;;;;-80
2021/12/01 23:45:09;;;;;;;;;;;;;;;3.68;89.64941;99914.98;;;;-81
2021/12/01 23:55:06;;;;;;;;;;;;;;;3.62;89.36621;99921.8;;;;-80
